Time;durP1;ratioP1;P1;durP2;ratioP2;P2;SDS_P1;SDS_P2;PMS_P1;PMS_P2;Temp;Humidity;BMP_temperature;BMP_pressure;BME280_temperature;BME280_humidity;BME280_pressure;Samples;Min_cycle;Max_cycle;Signal;HPM_P1;HPM_P2
2023/08/18 00:02:08;;;;;;;3.20;2.70;;;;;;;;;;5100980;28;20231;-66
2023/08/18 00:04:36;;;;;;;3.05;2.72;;;;;;;;;;5101314;28;20209;-66
2023/08/18 00:07:04;;;;;;;4.20;2.70;;;;;;;;;;5100757;28;20208;-65
2023/08/18 00:09:32;;;;;;;4.68;2.85;;;;;;;;;;5101026;28;20205;-66
2023/08/18 00:12:01;;;;;;;5.15;3.17;;;;;;;;;;5100953;28;20208;-65
2023/08/18 00:14:28;;;;;;;3.03;2.67;;;;;;;;;;5100747;28;20291;-65
2023/08/18 00:16:56;;;;;;;3.70;2.95;;;;;;;;;;5100829;28;20244;-65
2023/08/18 00:19:24;;;;;;;3.80;3.30;;;;;;;;;;5100793;28;20570;-65
2023/08/18 00:21:52;;;;;;;3.58;3.13;;;;;;;;;;5100554;28;20235;-65
2023/08/18 00:24:19;;;;;;;3.80;3.40;;;;;;;;;;5099908;28;20201;-65
2023/08/18 00:26:47;;;;;;;3.78;3.28;;;;;;;;;;5100559;28;20202;-65
2023/08/18 00:29:16;;;;;;;3.67;3.23;;;;;;;;;;5100594;28;20242;-65
2023/08/18 00:31:44;;;;;;;3.45;3.10;;;;;;;;;;5097470;28;20230;-65
2023/08/18 00:34:12;;;;;;;5.43;2.73;;;;;;;;;;5100688;28;20228;-65
2023/08/18 00:36:39;;;;;;;4.40;2.70;;;;;;;;;;5099778;28;20212;-65
2023/08/18 00:39:07;;;;;;;4.67;3.33;;;;;;;;;;5099660;28;20968;-65
2023/08/18 00:41:35;;;;;;;6.10;3.30;;;;;;;;;;5092148;28;20219;-65
2023/08/18 00:44:03;;;;;;;3.80;3.00;;;;;;;;;;5099530;28;20195;-65
2023/08/18 00:46:32;;;;;;;3.87;3.27;;;;;;;;;;5098380;28;20663;-65
2023/08/18 00:49:01;;;;;;;4.53;3.13;;;;;;;;;;5100644;28;20220;-65
2023/08/18 00:51:29;;;;;;;3.67;3.20;;;;;;;;;;5098413;28;20225;-65
2023/08/18 00:53:56;;;;;;;4.65;3.20;;;;;;;;;;5099334;28;20223;-65
2023/08/18 00:56:24;;;;;;;5.87;3.00;;;;;;;;;;5098149;28;20572;-65
2023/08/18 00:58:52;;;;;;;3.70;2.97;;;;;;;;;;5099421;28;20283;-65
2023/08/18 01:01:20;;;;;;;4.60;3.23;;;;;;;;;;5099032;28;20235;-65
2023/08/18 01:03:49;;;;;;;3.83;3.37;;;;;;;;;;5099095;28;20657;-65
2023/08/18 01:06:17;;;;;;;5.17;4.20;;;;;;;;;;5099258;28;20212;-65
2023/08/18 01:08:45;;;;;;;4.47;2.77;;;;;;;;;;5100130;28;20236;-65
2023/08/18 01:11:18;;;;;;;3.23;2.93;;;;;;;;;;5098827;28;20315;-65
2023/08/18 01:13:51;;;;;;;3.50;2.97;;;;;;;;;;5099605;28;20232;-65
2023/08/18 01:16:22;;;;;;;4.77;2.87;;;;;;;;;;5098458;28;20274;-65
2023/08/18 01:18:51;;;;;;;2.80;2.55;;;;;;;;;;5099145;28;20254;-65
2023/08/18 01:21:21;;;;;;;2.58;2.38;;;;;;;;;;5098891;28;20367;-64
2023/08/18 01:23:50;;;;;;;4.80;2.97;;;;;;;;;;5098631;28;20229;-65
2023/08/18 01:26:18;;;;;;;4.88;2.72;;;;;;;;;;5098931;28;20215;-64
2023/08/18 01:28:46;;;;;;;3.33;2.58;;;;;;;;;;5099378;28;20718;-65
2023/08/18 01:31:14;;;;;;;4.13;2.42;;;;;;;;;;5098827;28;20597;-66
2023/08/18 01:33:45;;;;;;;4.65;3.13;;;;;;;;;;5098853;28;20205;-65
2023/08/18 01:36:13;;;;;;;2.88;2.58;;;;;;;;;;5098665;28;20295;-65
2023/08/18 01:38:42;;;;;;;3.03;2.72;;;;;;;;;;5099623;28;20212;-66
2023/08/18 01:41:12;;;;;;;6.07;3.00;;;;;;;;;;5086428;28;20222;-66
2023/08/18 01:43:40;;;;;;;3.75;3.45;;;;;;;;;;5097976;28;20564;-66
2023/08/18 01:46:08;;;;;;;4.72;2.70;;;;;;;;;;5099316;28;20208;-66
2023/08/18 01:48:35;;;;;;;3.75;2.55;;;;;;;;;;5099503;28;20248;-65
2023/08/18 01:51:03;;;;;;;3.00;2.70;;;;;;;;;;5098165;28;20221;-64
2023/08/18 01:53:31;;;;;;;5.88;2.97;;;;;;;;;;5099129;28;20233;-65
2023/08/18 01:56:00;;;;;;;6.43;3.00;;;;;;;;;;5099188;28;20257;-66
2023/08/18 01:58:29;;;;;;;4.53;3.05;;;;;;;;;;5098915;28;20205;-65
2023/08/18 02:00:57;;;;;;;6.15;2.97;;;;;;;;;;5096615;28;20251;-64
2023/08/18 02:03:25;;;;;;;4.32;3.45;;;;;;;;;;5099097;28;20201;-65
2023/08/18 02:05:53;;;;;;;9.10;3.15;;;;;;;;;;5099080;28;20224;-65
2023/08/18 02:08:21;;;;;;;3.47;2.95;;;;;;;;;;5097714;28;20201;-65
2023/08/18 02:10:49;;;;;;;4.80;2.90;;;;;;;;;;5098682;28;20594;-64
2023/08/18 02:13:17;;;;;;;4.30;3.63;;;;;;;;;;5098761;28;20223;-65
2023/08/18 02:15:47;;;;;;;3.92;3.30;;;;;;;;;;5098795;28;20583;-65
2023/08/18 02:18:14;;;;;;;3.83;2.97;;;;;;;;;;5099141;28;20268;-66
2023/08/18 02:20:42;;;;;;;3.42;3.13;;;;;;;;;;5098709;28;20229;-65
2023/08/18 02:23:10;;;;;;;4.85;2.85;;;;;;;;;;5097960;28;20209;-66
2023/08/18 02:25:37;;;;;;;3.38;3.08;;;;;;;;;;5097965;28;20205;-66
2023/08/18 02:28:05;;;;;;;3.15;2.75;;;;;;;;;;5097494;28;20543;-66
2023/08/18 02:30:33;;;;;;;4.93;3.13;;;;;;;;;;5098544;28;20224;-66
2023/08/18 02:33:03;;;;;;;7.82;2.97;;;;;;;;;;5096388;28;20209;-66
2023/08/18 02:35:31;;;;;;;3.08;2.80;;;;;;;;;;5098513;28;20225;-66
2023/08/18 02:37:58;;;;;;;4.20;2.90;;;;;;;;;;5097551;28;20202;-66
2023/08/18 02:40:26;;;;;;;3.15;2.85;;;;;;;;;;5090712;28;20247;-64
2023/08/18 02:42:54;;;;;;;3.92;2.50;;;;;;;;;;5093244;28;20212;-65
2023/08/18 02:45:22;;;;;;;4.22;2.85;;;;;;;;;;5098482;28;20232;-65
2023/08/18 02:47:50;;;;;;;3.78;2.95;;;;;;;;;;5096165;28;20258;-65
2023/08/18 02:50:19;;;;;;;3.65;2.95;;;;;;;;;;5086704;28;20221;-65
2023/08/18 02:52:47;;;;;;;3.08;2.78;;;;;;;;;;5096466;28;20209;-65
2023/08/18 02:55:14;;;;;;;6.18;2.75;;;;;;;;;;5096907;28;20217;-65
2023/08/18 02:57:42;;;;;;;3.13;2.83;;;;;;;;;;5097300;28;20228;-66
2023/08/18 03:00:11;;;;;;;2.75;2.55;;;;;;;;;;5096923;28;20236;-65
2023/08/18 03:02:39;;;;;;;3.03;2.72;;;;;;;;;;5095584;28;20629;-66
2023/08/18 03:05:07;;;;;;;3.70;2.85;;;;;;;;;;5097607;28;20251;-66
2023/08/18 03:07:36;;;;;;;3.10;2.80;;;;;;;;;;5096658;28;20314;-66
2023/08/18 03:10:04;;;;;;;3.20;2.92;;;;;;;;;;5097916;28;20263;-66
2023/08/18 03:12:32;;;;;;;4.38;3.03;;;;;;;;;;5097854;28;20286;-66
2023/08/18 03:15:00;;;;;;;2.92;2.72;;;;;;;;;;5096852;28;20317;-65
2023/08/18 03:17:28;;;;;;;3.45;2.85;;;;;;;;;;5098042;28;20292;-65
2023/08/18 03:19:56;;;;;;;6.43;3.57;;;;;;;;;;5097886;28;20278;-65
2023/08/18 03:22:23;;;;;;;5.90;3.53;;;;;;;;;;5096813;28;20656;-65
2023/08/18 03:24:53;;;;;;;7.30;3.40;;;;;;;;;;5096102;28;20300;-66
2023/08/18 03:27:20;;;;;;;5.05;2.53;;;;;;;;;;5097188;28;20216;-66
2023/08/18 03:29:48;;;;;;;3.55;3.20;;;;;;;;;;5095794;28;20209;-66
2023/08/18 03:32:16;;;;;;;3.47;3.15;;;;;;;;;;5097086;28;20208;-66
2023/08/18 03:34:43;;;;;;;6.05;3.13;;;;;;;;;;5097425;28;20213;-66
2023/08/18 03:37:11;;;;;;;3.93;2.97;;;;;;;;;;5096948;28;20204;-65
2023/08/18 03:39:39;;;;;;;5.15;3.40;;;;;;;;;;5096516;28;20205;-66
2023/08/18 03:42:08;;;;;;;4.60;2.90;;;;;;;;;;5086989;28;20221;-66
2023/08/18 03:44:36;;;;;;;4.45;3.28;;;;;;;;;;5097128;28;20237;-65
2023/08/18 03:47:04;;;;;;;3.75;3.05;;;;;;;;;;5096881;28;20201;-64
2023/08/18 03:49:31;;;;;;;4.85;3.47;;;;;;;;;;5096663;28;20228;-66
2023/08/18 03:51:59;;;;;;;4.65;3.33;;;;;;;;;;5094572;28;20569;-66
2023/08/18 03:54:27;;;;;;;7.20;3.22;;;;;;;;;;5096278;28;20244;-65
2023/08/18 03:56:55;;;;;;;4.43;3.10;;;;;;;;;;5097450;28;20262;-64
2023/08/18 03:59:24;;;;;;;3.10;2.83;;;;;;;;;;5095967;28;20213;-66
2023/08/18 04:01:52;;;;;;;4.07;2.88;;;;;;;;;;5097496;28;20227;-66
2023/08/18 04:04:19;;;;;;;3.75;2.90;;;;;;;;;;5097522;28;20272;-65
2023/08/18 04:06:47;;;;;;;5.20;2.97;;;;;;;;;;5096811;28;20222;-65
2023/08/18 04:09:16;;;;;;;3.67;3.10;;;;;;;;;;5097071;28;20678;-66
2023/08/18 04:11:44;;;;;;;5.78;3.42;;;;;;;;;;5097496;28;20269;-66
2023/08/18 04:14:12;;;;;;;3.28;2.97;;;;;;;;;;5098086;28;20217;-65
2023/08/18 04:16:41;;;;;;;5.22;3.55;;;;;;;;;;5101140;28;20230;-65
2023/08/18 04:19:09;;;;;;;5.78;3.40;;;;;;;;;;5101156;28;20206;-65
2023/08/18 04:21:37;;;;;;;6.47;3.40;;;;;;;;;;5100982;28;20230;-65
2023/08/18 04:24:05;;;;;;;5.40;3.10;;;;;;;;;;5100180;28;20213;-65
2023/08/18 04:26:35;;;;;;;3.47;3.17;;;;;;;;;;5100117;28;20203;-65
2023/08/18 04:29:03;;;;;;;4.67;3.33;;;;;;;;;;5099559;28;20201;-65
2023/08/18 04:31:31;;;;;;;3.22;2.92;;;;;;;;;;5099326;28;20300;-66
2023/08/18 04:34:00;;;;;;;4.03;2.90;;;;;;;;;;5100283;28;20202;-65
2023/08/18 04:36:28;;;;;;;3.63;3.23;;;;;;;;;;5099555;28;20649;-66
2023/08/18 04:38:56;;;;;;;4.03;3.60;;;;;;;;;;5100577;28;20212;-66
2023/08/18 04:41:23;;;;;;;4.63;2.80;;;;;;;;;;5086796;28;20225;-66
2023/08/18 04:43:52;;;;;;;3.50;3.20;;;;;;;;;;5099092;28;20201;-66
2023/08/18 04:46:20;;;;;;;5.40;3.20;;;;;;;;;;5097266;28;20284;-66
2023/08/18 04:48:47;;;;;;;6.75;3.38;;;;;;;;;;5099395;28;20206;-66
2023/08/18 04:51:16;;;;;;;4.07;3.53;;;;;;;;;;5098542;28;20226;-66
2023/08/18 04:53:44;;;;;;;4.40;3.35;;;;;;;;;;5091638;28;20201;-66
2023/08/18 04:56:12;;;;;;;3.77;3.10;;;;;;;;;;5098113;28;20312;-66
2023/08/18 04:58:40;;;;;;;3.67;3.23;;;;;;;;;;5097014;28;20198;-66
2023/08/18 05:01:07;;;;;;;6.33;3.53;;;;;;;;;;5097820;28;20622;-66
2023/08/18 05:03:35;;;;;;;8.80;3.87;;;;;;;;;;5098489;28;20559;-66
2023/08/18 05:06:07;;;;;;;5.68;3.75;;;;;;;;;;5099092;28;20248;-66
2023/08/18 05:08:37;;;;;;;5.88;3.03;;;;;;;;;;5096818;28;20214;-66
2023/08/18 05:11:05;;;;;;;7.65;3.42;;;;;;;;;;5098789;28;20280;-66
2023/08/18 05:13:33;;;;;;;5.20;3.30;;;;;;;;;;5099129;28;20207;-66
2023/08/18 05:16:01;;;;;;;3.97;3.28;;;;;;;;;;5099694;28;20669;-66
2023/08/18 05:18:30;;;;;;;3.67;2.70;;;;;;;;;;5099580;28;20521;-66
2023/08/18 05:20:57;;;;;;;3.43;3.13;;;;;;;;;;5099154;28;20236;-66
2023/08/18 05:23:25;;;;;;;4.67;3.70;;;;;;;;;;5098204;28;20218;-66
2023/08/18 05:25:56;;;;;;;4.90;4.13;;;;;;;;;;5098085;28;20687;-66
2023/08/18 05:28:24;;;;;;;3.70;3.40;;;;;;;;;;5098862;28;20288;-66
2023/08/18 05:30:53;;;;;;;4.57;4.13;;;;;;;;;;5098547;28;20221;-66
2023/08/18 05:33:20;;;;;;;4.77;3.90;;;;;;;;;;5097198;28;20239;-66
2023/08/18 05:35:48;;;;;;;3.80;3.50;;;;;;;;;;5097652;28;20632;-66
2023/08/18 05:38:16;;;;;;;7.05;3.80;;;;;;;;;;5098647;28;20237;-66
2023/08/18 05:40:45;;;;;;;7.32;3.88;;;;;;;;;;5091519;28;20222;-66
2023/08/18 05:43:15;;;;;;;8.90;3.83;;;;;;;;;;5097910;28;20209;-66
2023/08/18 05:45:43;;;;;;;4.30;3.90;;;;;;;;;;5098984;28;20232;-66
2023/08/18 05:48:11;;;;;;;4.32;3.47;;;;;;;;;;5096914;28;20231;-66
2023/08/18 05:50:39;;;;;;;5.45;3.60;;;;;;;;;;5097060;28;20675;-66
2023/08/18 05:53:07;;;;;;;7.97;3.65;;;;;;;;;;5098385;28;20207;-66
2023/08/18 05:55:35;;;;;;;6.15;3.50;;;;;;;;;;5097693;28;20695;-66
2023/08/18 05:58:03;;;;;;;3.72;3.30;;;;;;;;;;5098503;28;20313;-66
2023/08/18 06:00:32;;;;;;;7.95;3.60;;;;;;;;;;5098040;28;20247;-66
2023/08/18 06:03:00;;;;;;;6.45;3.45;;;;;;;;;;5092417;28;20206;-66
2023/08/18 06:05:28;;;;;;;6.05;3.55;;;;;;;;;;5097020;28;20238;-64
2023/08/18 06:07:56;;;;;;;4.60;4.00;;;;;;;;;;5098119;28;20614;-66
2023/08/18 06:10:24;;;;;;;5.93;3.20;;;;;;;;;;5098489;28;20231;-66
2023/08/18 06:12:52;;;;;;;3.90;3.50;;;;;;;;;;5098476;28;20222;-66
2023/08/18 06:15:20;;;;;;;6.40;3.80;;;;;;;;;;5096222;28;20713;-66
2023/08/18 06:17:50;;;;;;;8.60;3.97;;;;;;;;;;5098689;28;20239;-66
2023/08/18 06:20:17;;;;;;;5.63;3.70;;;;;;;;;;5098397;28;20236;-65
2023/08/18 06:22:45;;;;;;;4.45;3.38;;;;;;;;;;5097670;28;20226;-66
2023/08/18 06:25:13;;;;;;;6.57;3.55;;;;;;;;;;5098586;28;20207;-66
2023/08/18 06:27:41;;;;;;;4.97;3.10;;;;;;;;;;5097657;28;20256;-65
2023/08/18 06:30:09;;;;;;;7.40;3.50;;;;;;;;;;5098462;28;20235;-66
2023/08/18 06:32:36;;;;;;;5.20;3.30;;;;;;;;;;5094876;28;20204;-66
2023/08/18 06:35:06;;;;;;;3.85;3.38;;;;;;;;;;5094171;28;20207;-66
2023/08/18 06:37:34;;;;;;;4.00;3.38;;;;;;;;;;5087086;28;20308;-66
2023/08/18 06:40:02;;;;;;;8.60;3.22;;;;;;;;;;5092223;28;21112;-66
2023/08/18 06:42:29;;;;;;;4.97;3.28;;;;;;;;;;5088596;28;20331;-66
2023/08/18 06:44:58;;;;;;;6.53;3.63;;;;;;;;;;5096366;28;20209;-66
2023/08/18 06:47:25;;;;;;;4.60;3.45;;;;;;;;;;5095671;28;20197;-66
2023/08/18 06:49:53;;;;;;;3.80;2.95;;;;;;;;;;5096425;28;20691;-64
2023/08/18 06:52:22;;;;;;;4.00;3.28;;;;;;;;;;5096740;28;20291;-64
2023/08/18 06:54:50;;;;;;;3.97;3.20;;;;;;;;;;5097452;28;20205;-64
2023/08/18 06:57:20;;;;;;;3.90;3.28;;;;;;;;;;5096874;28;20286;-64
2023/08/18 06:59:48;;;;;;;6.53;3.50;;;;;;;;;;5095645;28;20347;-64
2023/08/18 07:02:16;;;;;;;3.72;3.42;;;;;;;;;;5096947;28;20212;-65
2023/08/18 07:04:43;;;;;;;8.60;3.30;;;;;;;;;;5096210;28;20225;-65
2023/08/18 07:07:11;;;;;;;3.53;3.33;;;;;;;;;;5095791;28;20264;-65
2023/08/18 07:09:40;;;;;;;5.18;3.33;;;;;;;;;;5096120;28;20637;-65
2023/08/18 07:12:09;;;;;;;4.47;2.90;;;;;;;;;;5096782;28;20215;-66
2023/08/18 07:14:36;;;;;;;2.95;2.75;;;;;;;;;;5097737;28;20248;-64
2023/08/18 07:17:04;;;;;;;3.75;2.90;;;;;;;;;;5097119;28;20225;-66
2023/08/18 07:19:32;;;;;;;4.30;3.15;;;;;;;;;;5097637;28;20209;-66
2023/08/18 07:22:00;;;;;;;5.18;2.88;;;;;;;;;;5096704;28;20284;-66
2023/08/18 07:24:27;;;;;;;3.47;3.20;;;;;;;;;;5097665;28;20244;-66
2023/08/18 07:26:57;;;;;;;4.55;2.97;;;;;;;;;;5095265;28;20280;-66
2023/08/18 07:29:25;;;;;;;3.75;3.10;;;;;;;;;;5096525;28;20197;-66
2023/08/18 07:31:53;;;;;;;2.80;2.60;;;;;;;;;;5096020;28;20708;-65
2023/08/18 07:34:21;;;;;;;5.03;2.83;;;;;;;;;;5096716;28;20193;-65
2023/08/18 07:36:48;;;;;;;5.82;3.30;;;;;;;;;;5096766;28;20280;-65
2023/08/18 07:39:16;;;;;;;3.25;2.83;;;;;;;;;;5097079;28;20209;-64
2023/08/18 07:41:44;;;;;;;3.30;3.00;;;;;;;;;;5085214;28;20577;-65
2023/08/18 07:44:13;;;;;;;6.22;2.85;;;;;;;;;;5096227;28;20206;-66
2023/08/18 07:46:41;;;;;;;6.68;3.03;;;;;;;;;;5096462;28;20204;-65
2023/08/18 07:49:08;;;;;;;7.20;2.70;;;;;;;;;;5099318;28;20337;-65
2023/08/18 07:51:37;;;;;;;4.00;2.85;;;;;;;;;;5099649;28;20680;-64
2023/08/18 07:54:06;;;;;;;9.35;3.53;;;;;;;;;;5100724;28;20732;-64
2023/08/18 07:56:33;;;;;;;3.45;3.15;;;;;;;;;;5100354;28;20232;-65
2023/08/18 07:59:03;;;;;;;3.22;2.67;;;;;;;;;;5101108;28;20232;-65
2023/08/18 08:01:32;;;;;;;3.10;2.63;;;;;;;;;;5101146;28;20237;-65
2023/08/18 08:04:00;;;;;;;5.72;3.00;;;;;;;;;;5100783;28;20212;-65
2023/08/18 08:06:28;;;;;;;2.80;2.60;;;;;;;;;;5101410;28;20258;-66
2023/08/18 08:08:56;;;;;;;5.25;3.40;;;;;;;;;;5101214;28;20201;-66
2023/08/18 08:11:23;;;;;;;3.00;2.55;;;;;;;;;;5101284;28;20245;-66
2023/08/18 08:13:51;;;;;;;3.20;2.53;;;;;;;;;;5100826;28;20205;-65
2023/08/18 08:16:19;;;;;;;3.80;2.53;;;;;;;;;;5101221;28;20209;-66
2023/08/18 08:18:48;;;;;;;3.47;3.17;;;;;;;;;;5099899;28;20251;-66
2023/08/18 08:21:16;;;;;;;3.10;2.90;;;;;;;;;;5099038;28;20217;-66
2023/08/18 08:23:44;;;;;;;3.90;2.90;;;;;;;;;;5101091;28;20209;-65
2023/08/18 08:26:15;;;;;;;2.97;2.78;;;;;;;;;;5100180;28;20202;-66
2023/08/18 08:28:44;;;;;;;4.75;2.85;;;;;;;;;;5100817;28;20201;-65
2023/08/18 08:31:11;;;;;;;6.15;2.92;;;;;;;;;;5100072;28;20661;-65
2023/08/18 08:33:39;;;;;;;3.58;3.10;;;;;;;;;;5099418;28;20280;-66
2023/08/18 08:36:08;;;;;;;4.22;2.58;;;;;;;;;;5099907;28;20213;-66
2023/08/18 08:38:37;;;;;;;2.92;2.72;;;;;;;;;;5100841;28;20748;-66
2023/08/18 08:41:10;;;;;;;5.75;2.85;;;;;;;;;;5087572;28;20230;-65
2023/08/18 08:43:37;;;;;;;3.05;2.70;;;;;;;;;;5100422;28;20201;-66
2023/08/18 08:46:05;;;;;;;4.43;3.20;;;;;;;;;;5099190;28;20198;-66
2023/08/18 08:48:35;;;;;;;3.35;3.15;;;;;;;;;;5100355;28;20205;-64
2023/08/18 08:51:04;;;;;;;4.13;2.75;;;;;;;;;;5098049;28;20220;-65
2023/08/18 08:53:36;;;;;;;3.78;3.22;;;;;;;;;;5099446;28;20611;-66
2023/08/18 08:56:04;;;;;;;6.57;3.42;;;;;;;;;;5100064;28;20205;-65
2023/08/18 08:58:35;;;;;;;5.38;3.30;;;;;;;;;;5099395;28;20225;-64
2023/08/18 09:01:04;;;;;;;3.25;2.80;;;;;;;;;;5098174;28;20241;-65
2023/08/18 09:03:31;;;;;;;5.28;3.05;;;;;;;;;;5098115;28;20606;-64
2023/08/18 09:05:59;;;;;;;3.30;3.00;;;;;;;;;;5098740;28;20209;-65
2023/08/18 09:08:27;;;;;;;6.80;3.13;;;;;;;;;;5100116;28;20216;-65
2023/08/18 09:10:56;;;;;;;4.85;2.60;;;;;;;;;;5098676;28;20224;-65
2023/08/18 09:13:24;;;;;;;3.05;2.67;;;;;;;;;;5099048;28;20556;-65
2023/08/18 09:15:52;;;;;;;4.10;2.70;;;;;;;;;;5098716;28;20305;-65
2023/08/18 09:18:20;;;;;;;3.75;2.70;;;;;;;;;;5092508;28;20260;-64
2023/08/18 09:20:48;;;;;;;4.78;2.78;;;;;;;;;;5099325;28;20225;-64
2023/08/18 09:23:17;;;;;;;9.00;2.90;;;;;;;;;;5099521;28;20682;-65
2023/08/18 09:25:50;;;;;;;5.45;2.45;;;;;;;;;;5099344;28;20280;-64
2023/08/18 09:28:19;;;;;;;3.03;2.72;;;;;;;;;;5098701;28;20296;-64
2023/08/18 09:30:47;;;;;;;5.30;2.70;;;;;;;;;;5098802;28;20312;-65
2023/08/18 09:33:23;;;;;;;3.83;2.83;;;;;;;;;;5097481;28;20241;-64
2023/08/18 09:35:57;;;;;;;5.05;2.72;;;;;;;;;;5097928;28;20640;-65
2023/08/18 09:38:27;;;;;;;7.32;3.17;;;;;;;;;;5098814;28;20225;-65
2023/08/18 09:40:56;;;;;;;2.75;2.47;;;;;;;;;;5097208;28;20335;-65
2023/08/18 09:43:26;;;;;;;2.88;2.67;;;;;;;;;;5098794;28;20201;-65
2023/08/18 09:45:53;;;;;;;6.95;3.22;;;;;;;;;;5098241;28;20209;-64
2023/08/18 09:48:22;;;;;;;3.10;2.60;;;;;;;;;;5099267;28;20208;-65
2023/08/18 09:50:52;;;;;;;4.32;2.28;;;;;;;;;;5096645;28;20228;-64
2023/08/18 09:53:22;;;;;;;2.72;2.47;;;;;;;;;;5099404;28;20205;-65
2023/08/18 09:55:52;;;;;;;2.58;2.38;;;;;;;;;;5098085;28;20255;-65
2023/08/18 09:58:21;;;;;;;2.58;2.38;;;;;;;;;;5088971;28;20201;-64
2023/08/18 10:00:56;;;;;;;2.53;2.33;;;;;;;;;;5098781;28;20286;-64
2023/08/18 10:03:25;;;;;;;3.88;2.42;;;;;;;;;;5098141;28;20283;-66
2023/08/18 10:05:54;;;;;;;3.17;2.72;;;;;;;;;;5099117;28;20225;-65
2023/08/18 10:08:22;;;;;;;4.95;2.13;;;;;;;;;;5098969;28;20205;-64
2023/08/18 10:10:50;;;;;;;2.20;2.10;;;;;;;;;;5098886;28;20225;-64
2023/08/18 10:13:18;;;;;;;3.78;2.13;;;;;;;;;;5098517;28;20205;-66
2023/08/18 10:15:47;;;;;;;4.03;2.45;;;;;;;;;;5098638;28;20202;-64
2023/08/18 10:18:16;;;;;;;2.85;2.33;;;;;;;;;;5098867;28;20208;-65
2023/08/18 10:20:48;;;;;;;2.60;2.35;;;;;;;;;;5098285;28;20320;-64
2023/08/18 10:23:17;;;;;;;3.08;2.10;;;;;;;;;;5098660;28;20211;-65
2023/08/18 10:25:45;;;;;;;3.10;2.20;;;;;;;;;;5098830;28;20201;-65
2023/08/18 10:28:17;;;;;;;5.32;2.22;;;;;;;;;;5098144;28;20607;-65
2023/08/18 10:30:50;;;;;;;4.03;2.17;;;;;;;;;;5097749;28;20229;-65
2023/08/18 10:33:27;;;;;;;3.05;1.80;;;;;;;;;;5095660;28;20289;-65
2023/08/18 10:35:57;;;;;;;2.85;2.10;;;;;;;;;;5096683;28;20200;-66
2023/08/18 10:38:27;;;;;;;2.63;2.28;;;;;;;;;;5097715;28;20656;-65
2023/08/18 10:40:55;;;;;;;2.35;2.10;;;;;;;;;;5089337;28;20266;-65
2023/08/18 10:43:25;;;;;;;3.33;1.80;;;;;;;;;;5097973;28;20209;-64
2023/08/18 10:45:57;;;;;;;3.88;2.25;;;;;;;;;;5097077;28;20233;-65
2023/08/18 10:48:30;;;;;;;4.70;2.22;;;;;;;;;;5095538;28;20205;-64
2023/08/18 10:50:58;;;;;;;4.18;1.90;;;;;;;;;;5094381;28;20308;-65
2023/08/18 10:53:26;;;;;;;2.10;1.90;;;;;;;;;;5098351;28;20205;-65
2023/08/18 10:55:54;;;;;;;1.80;1.67;;;;;;;;;;5096222;28;20652;-65
2023/08/18 10:58:22;;;;;;;3.50;2.00;;;;;;;;;;5097904;28;20708;-65
2023/08/18 11:00:50;;;;;;;3.28;2.22;;;;;;;;;;5095168;28;20328;-65
2023/08/18 11:03:19;;;;;;;4.60;2.30;;;;;;;;;;5097293;28;20262;-66
2023/08/18 11:05:48;;;;;;;3.95;2.28;;;;;;;;;;5097092;28;20228;-65
2023/08/18 11:08:15;;;;;;;2.88;1.92;;;;;;;;;;5096031;28;21133;-64
2023/08/18 11:10:43;;;;;;;3.35;2.42;;;;;;;;;;5097499;28;20240;-65
2023/08/18 11:13:13;;;;;;;3.58;2.10;;;;;;;;;;5096113;28;20540;-66
2023/08/18 11:15:42;;;;;;;2.38;2.10;;;;;;;;;;5098075;28;20205;-65
2023/08/18 11:18:09;;;;;;;2.45;2.25;;;;;;;;;;5097011;28;20210;-65
2023/08/18 11:20:37;;;;;;;3.53;1.80;;;;;;;;;;5095777;28;20324;-65
2023/08/18 11:23:06;;;;;;;2.20;2.00;;;;;;;;;;5099744;28;20205;-65
2023/08/18 11:25:34;;;;;;;3.00;2.35;;;;;;;;;;5103587;28;20201;-65
2023/08/18 11:28:02;;;;;;;3.28;2.15;;;;;;;;;;5103381;28;20207;-65
2023/08/18 11:30:32;;;;;;;3.20;2.33;;;;;;;;;;5103290;28;20591;-66
2023/08/18 11:33:00;;;;;;;2.72;2.00;;;;;;;;;;5103613;28;20546;-66
2023/08/18 11:35:30;;;;;;;2.40;2.20;;;;;;;;;;5104497;28;20230;-64
2023/08/18 11:37:58;;;;;;;3.10;1.75;;;;;;;;;;5103729;28;20211;-64
2023/08/18 11:40:27;;;;;;;4.15;1.77;;;;;;;;;;5102946;28;20311;-64
2023/08/18 11:42:57;;;;;;;2.35;1.83;;;;;;;;;;5103542;28;20197;-65
2023/08/18 11:45:25;;;;;;;2.08;1.92;;;;;;;;;;5102874;28;20259;-64
2023/08/18 11:47:59;;;;;;;2.55;1.65;;;;;;;;;;5103340;28;20212;-65
2023/08/18 11:50:31;;;;;;;2.28;1.80;;;;;;;;;;5104206;28;20246;-65
2023/08/18 11:52:58;;;;;;;2.88;2.00;;;;;;;;;;5102578;28;20201;-65
2023/08/18 11:55:32;;;;;;;2.63;2.20;;;;;;;;;;5103695;28;20233;-64
2023/08/18 11:58:05;;;;;;;2.45;2.10;;;;;;;;;;5102716;28;20303;-65
2023/08/18 12:00:35;;;;;;;2.50;1.90;;;;;;;;;;5103762;28;20236;-65
2023/08/18 12:03:04;;;;;;;3.50;1.92;;;;;;;;;;5103315;28;20201;-65
2023/08/18 12:05:32;;;;;;;2.30;2.10;;;;;;;;;;5104008;28;20213;-65
2023/08/18 12:08:01;;;;;;;2.08;1.75;;;;;;;;;;5104340;28;20240;-66
2023/08/18 12:10:28;;;;;;;2.42;2.20;;;;;;;;;;5104169;28;20342;-66
2023/08/18 12:12:59;;;;;;;2.10;1.65;;;;;;;;;;5104306;28;20209;-65
2023/08/18 12:15:27;;;;;;;8.20;2.00;;;;;;;;;;5103896;28;20647;-65
2023/08/18 12:17:55;;;;;;;1.77;1.52;;;;;;;;;;5104416;28;20243;-65
2023/08/18 12:20:24;;;;;;;2.28;1.70;;;;;;;;;;5103335;28;20285;-65
2023/08/18 12:22:52;;;;;;;2.58;1.92;;;;;;;;;;5104137;28;20201;-66
2023/08/18 12:25:22;;;;;;;2.75;1.70;;;;;;;;;;5104235;28;20265;-65
2023/08/18 12:27:50;;;;;;;3.35;2.08;;;;;;;;;;5103939;28;20209;-66
2023/08/18 12:30:20;;;;;;;2.53;1.90;;;;;;;;;;5104065;28;20225;-65
2023/08/18 12:32:49;;;;;;;2.55;1.98;;;;;;;;;;5103323;28;20276;-67
2023/08/18 12:35:17;;;;;;;1.60;1.50;;;;;;;;;;5100612;28;20250;-65
2023/08/18 12:37:44;;;;;;;1.60;1.50;;;;;;;;;;5099834;28;20209;-65
2023/08/18 12:40:12;;;;;;;4.53;1.83;;;;;;;;;;5095617;28;20234;-64
2023/08/18 12:42:41;;;;;;;2.10;1.90;;;;;;;;;;5099684;28;20296;-65
2023/08/18 12:45:09;;;;;;;2.42;2.10;;;;;;;;;;5100912;28;20306;-64
2023/08/18 12:47:39;;;;;;;2.20;1.95;;;;;;;;;;5099074;28;20237;-65
2023/08/18 12:50:08;;;;;;;6.10;2.10;;;;;;;;;;5100619;28;20264;-65
2023/08/18 12:52:36;;;;;;;2.08;1.58;;;;;;;;;;5098738;28;20232;-65
2023/08/18 12:55:04;;;;;;;3.72;1.65;;;;;;;;;;5099690;28;20240;-65
2023/08/18 12:57:32;;;;;;;3.28;1.98;;;;;;;;;;5098799;28;20240;-65
2023/08/18 12:59:59;;;;;;;2.17;1.90;;;;;;;;;;5099252;28;20237;-65
2023/08/18 13:02:27;;;;;;;2.35;1.80;;;;;;;;;;5099600;28;20197;-66
2023/08/18 13:04:57;;;;;;;4.00;1.83;;;;;;;;;;5100574;28;20205;-66
2023/08/18 13:07:25;;;;;;;2.65;1.90;;;;;;;;;;5099332;28;20206;-66
2023/08/18 13:09:53;;;;;;;2.22;1.83;;;;;;;;;;5099989;28;20253;-65
2023/08/18 13:12:20;;;;;;;2.10;1.90;;;;;;;;;;5098555;28;20205;-66
2023/08/18 13:14:48;;;;;;;3.15;2.08;;;;;;;;;;5099592;28;20208;-65
2023/08/18 13:17:16;;;;;;;3.80;2.22;;;;;;;;;;5098162;28;20198;-65
2023/08/18 13:19:44;;;;;;;1.65;1.50;;;;;;;;;;5098595;28;20220;-65
2023/08/18 13:22:16;;;;;;;2.20;2.00;;;;;;;;;;5099169;28;20217;-65
2023/08/18 13:24:44;;;;;;;2.35;2.20;;;;;;;;;;5099927;28;20215;-66
2023/08/18 13:27:12;;;;;;;2.22;2.13;;;;;;;;;;5097842;28;20201;-66
2023/08/18 13:29:40;;;;;;;2.28;2.05;;;;;;;;;;5099014;28;20202;-65
2023/08/18 13:32:08;;;;;;;2.17;1.88;;;;;;;;;;5099107;28;20202;-66
2023/08/18 13:34:36;;;;;;;2.55;1.90;;;;;;;;;;5098863;28;20207;-66
2023/08/18 13:37:04;;;;;;;4.53;2.88;;;;;;;;;;5098667;28;20212;-65
2023/08/18 13:39:33;;;;;;;3.33;2.25;;;;;;;;;;5099456;28;20628;-65
2023/08/18 13:42:01;;;;;;;1.77;1.65;;;;;;;;;;5089271;28;20342;-65
2023/08/18 13:44:28;;;;;;;2.65;1.88;;;;;;;;;;5097243;28;20201;-65
2023/08/18 13:46:57;;;;;;;2.20;1.90;;;;;;;;;;5098148;28;20207;-66
2023/08/18 13:49:26;;;;;;;2.35;2.15;;;;;;;;;;5097798;28;20284;-66
2023/08/18 13:51:54;;;;;;;2.30;2.10;;;;;;;;;;5097232;28;20755;-65
2023/08/18 13:54:22;;;;;;;3.42;2.00;;;;;;;;;;5098386;28;20677;-64
2023/08/18 13:56:51;;;;;;;2.92;2.03;;;;;;;;;;5098155;28;20216;-65
2023/08/18 13:59:19;;;;;;;2.25;1.80;;;;;;;;;;5099010;28;20556;-65
2023/08/18 14:01:46;;;;;;;2.47;1.92;;;;;;;;;;5097611;28;20430;-65
2023/08/18 14:04:14;;;;;;;2.88;1.90;;;;;;;;;;5098863;28;20236;-65
2023/08/18 14:06:42;;;;;;;2.72;2.05;;;;;;;;;;5099214;28;20205;-65
2023/08/18 14:09:13;;;;;;;4.38;1.80;;;;;;;;;;5098875;28;20254;-65
2023/08/18 14:11:41;;;;;;;1.80;1.50;;;;;;;;;;5098911;28;20317;-66
2023/08/18 14:14:10;;;;;;;2.58;1.77;;;;;;;;;;5101183;28;20209;-65
2023/08/18 14:16:38;;;;;;;2.45;2.10;;;;;;;;;;5105114;28;20248;-65
2023/08/18 14:19:06;;;;;;;2.28;1.95;;;;;;;;;;5097925;28;20292;-66
2023/08/18 14:21:34;;;;;;;2.40;1.70;;;;;;;;;;5098480;28;20228;-65
2023/08/18 14:24:01;;;;;;;4.70;2.10;;;;;;;;;;5098788;28;20269;-65
2023/08/18 14:26:29;;;;;;;3.38;2.13;;;;;;;;;;5098288;28;20210;-65
2023/08/18 14:28:57;;;;;;;2.97;1.85;;;;;;;;;;5098695;28;20205;-66
2023/08/18 14:31:26;;;;;;;4.88;1.88;;;;;;;;;;5097644;28;20284;-65
2023/08/18 14:33:54;;;;;;;1.85;1.75;;;;;;;;;;5098718;28;20207;-65
2023/08/18 14:36:21;;;;;;;3.25;2.20;;;;;;;;;;5097631;28;21608;-66
2023/08/18 14:38:49;;;;;;;3.00;2.03;;;;;;;;;;5096352;28;20658;-65
2023/08/18 14:41:17;;;;;;;3.42;1.80;;;;;;;;;;5096887;28;20657;-65
2023/08/18 14:43:45;;;;;;;2.90;2.17;;;;;;;;;;5097191;28;20205;-65
2023/08/18 14:46:12;;;;;;;2.30;2.10;;;;;;;;;;5096792;28;20205;-65
2023/08/18 14:48:42;;;;;;;2.38;1.80;;;;;;;;;;5095863;28;20201;-65
2023/08/18 14:51:09;;;;;;;2.05;1.90;;;;;;;;;;5095933;28;20217;-66